Buoy 47557

sailwx.info

Track history (hours):
 
Tides and Currents Weather Stations Pressure Air Temp Water Temp Dewpoint Dewpoint Depression Visibility Wind Speed Wind Dir Waves Ship Positions

Drifting buoy 47557

Last reported at 2017-Jun-23 23:00 UTC. Time now 2017-Jun-24 00:19 UTC.
Position N 53°17' W 016°39'.

Barometer 1015.1 mb
Water temperature 13.1 ° C

Date/timePositionNaut miles runAvg speedWind from/ knotsBaromVisibWave heightAir tempDewpointWater temp
2017-Jun-23 23:00N 53°17' W 016°39'1 1.4 1015.1 13.1
2017-Jun-23 22:00N 53°18' W 016°40'1 0.9 1014.6 13.1
2017-Jun-23 21:00N 53°19' W 016°41'1 1.4 1013.7 13.2
2017-Jun-23 20:00N 53°20' W 016°43'1 0.9 1012.9 13.2
2017-Jun-23 19:00N 53°20' W 016°44'1 0.9 1012.2 13.2
2017-Jun-23 18:00N 53°21' W 016°45'1 0.7 1012.1 13.2
2017-Jun-23 17:00N 53°22' W 016°46'1 0.7 1012.5 13.2
2017-Jun-23 16:00N 53°22' W 016°46'1 0.9 1012.5 13.2
2017-Jun-23 15:00N 53°23' W 016°47'1 0.7 1012.7 13.2
2017-Jun-23 14:00N 53°23' W 016°48'1 0.9 1012.8 13.2
2017-Jun-23 13:00N 53°24' W 016°49'2 1.6 1012.7 13.2
2017-Jun-23 12:00N 53°25' W 016°51'1 1.4 1012.6 13.2
2017-Jun-23 11:00N 53°26' W 016°52'1 0.9 1012.4 13.2
2017-Jun-23 10:00N 53°27' W 016°53'1 1.2 1011.9 13.2
2017-Jun-23 09:00N 53°28' W 016°55'1 0.9 1011.7 13.2
2017-Jun-23 08:00N 53°28' W 016°56'1 0.9 1011.3 13.2
2017-Jun-23 07:00N 53°29' W 016°58'1 0.7 1010.7 13.2
2017-Jun-23 06:00N 53°29' W 016°58'1 0.7 1009.8 13.2
2017-Jun-23 05:00N 53°29' W 016°59'0 0.4 1009.3 13.2
2017-Jun-23 04:00N 53°29' W 017°00'1 0.7 1008.4 13.2
2017-Jun-23 03:00N 53°30' W 017°01'1 0.7 1008.1 13.2
2017-Jun-23 02:00N 53°31' W 017°01'1 0.7 1007.9 13.2
2017-Jun-23 01:00N 53°31' W 017°02'1 0.9 1007.4 13.2
2017-Jun-23 00:00N 53°32' W 017°03'1 0.7 1006.8 13.2
2017-Jun-22 23:00N 53°32' W 017°04'1 0.9 1006.0 13.3
2017-Jun-22 22:00N 53°33' W 017°05'1 1.3 1005.6 13.3
2017-Jun-22 21:00N 53°34' W 017°05'1 0.9 1004.6 13.3
2017-Jun-22 20:00N 53°35' W 017°07'1 1.2 1003.7 13.3
2017-Jun-22 19:00N 53°35' W 017°08'1 1.2 1003.3 13.3
2017-Jun-22 18:00N 53°36' W 017°10'3 1.1 1003.4 13.3
2017-Jun-22 15:00N 53°36' W 017°16'1 0.7 1003.8 13.3
2017-Jun-22 14:00N 53°36' W 017°17'1 1.2 1004.4 13.4
2017-Jun-22 13:00N 53°35' W 017°19'1 1.2 1005.0 13.4
2017-Jun-22 12:00N 53°35' W 017°20'1 0.7 1005.5 13.4
2017-Jun-22 11:00N 53°35' W 017°22'1 0.7 1005.9 13.4
2017-Jun-22 10:00N 53°35' W 017°23'1 0.7 1007.1 13.4
2017-Jun-22 09:00N 53°34' W 017°23'1 0.7 1007.9 13.4
2017-Jun-22 08:00N 53°34' W 017°25'1 0.9 1008.2 13.4
2017-Jun-22 07:00N 53°35' W 017°26'1 0.7 1008.6 13.4
2017-Jun-22 06:00N 53°35' W 017°27'1 1.2 1008.9 13.4
2017-Jun-22 05:00N 53°34' W 017°29'1 0.7 1009.6 13.4
2017-Jun-22 04:00N 53°34' W 017°30'1 1.2 1010.2 13.4
2017-Jun-22 03:00N 53°34' W 017°32'1 1.1 1010.5 13.4
2017-Jun-22 02:00N 53°34' W 017°34'1 0.9 1010.8 13.4
2017-Jun-22 01:00N 53°33' W 017°35'1 1.2 1011.6 13.4
2017-Jun-22 00:00N 53°32' W 017°37'1 0.9 1012.1 13.4
2017-Jun-21 23:00N 53°32' W 017°38'1 0.9 1012.7 13.5
2017-Jun-21 22:00N 53°31' W 017°39'1 0.7 1012.8 13.5
2017-Jun-21 21:00N 53°31' W 017°40'1 0.7 1013.1 13.5
2017-Jun-21 20:00N 53°31' W 017°41'0 0.4 1013.3 13.5
2017-Jun-21 19:00N 53°31' W 017°41'1 0.9 1012.9 13.5
2017-Jun-21 18:00N 53°30' W 017°43'1 0.7 1013.1 13.5
2017-Jun-21 17:00N 53°30' W 017°44'1 1.2 1013.1 13.5
2017-Jun-21 16:00N 53°29' W 017°46'1 0.9 1013.2 13.5
2017-Jun-21 15:00N 53°29' W 017°47'1 1.1 1013.0 13.4
2017-Jun-21 14:00N 53°29' W 017°49'2 1.1 1013.2 13.4
2017-Jun-21 12:00N 53°28' W 017°52'1 1.4 1013.1 13.4
2017-Jun-21 11:00N 53°26' W 017°53'1 0.7 1013.0 13.3
2017-Jun-21 10:00N 53°26' W 017°54'1 0.9 1012.8 13.3
2017-Jun-21 09:00N 53°26' W 017°55'1 0.9 1012.8 13.3
2017-Jun-21 08:00N 53°25' W 017°56'1 0.7 1012.5 13.3
2017-Jun-21 07:00N 53°25' W 017°58'1 0.7 1011.9 13.3
2017-Jun-21 06:00N 53°25' W 017°58'1 0.9 1011.3 13.3
2017-Jun-21 05:00N 53°24' W 017°59'1 0.9 1011.1 13.3
2017-Jun-21 04:00N 53°23' W 018°01'1 0.7 1011.0 13.3
2017-Jun-21 03:00N 53°23' W 018°01'2 0.7 1010.6 13.3
2017-Jun-21 00:00N 53°22' W 018°04'1 0.9 1010.4 13.3
2017-Jun-20 23:00N 53°21' W 018°05'1 0.9 1010.3 13.3
2017-Jun-20 22:00N 53°20' W 018°07'1 0.7 1010.3 13.4
2017-Jun-20 21:00N 53°20' W 018°07'2 0.8 1010.2 13.4
2017-Jun-20 19:00N 53°19' W 018°10'1 0.7 1010.5 13.4
2017-Jun-20 18:00N 53°19' W 018°10'3 0.9 1010.9 13.4
2017-Jun-20 15:00N 53°16' W 018°13'3 0.8 1012.7 13.4
2017-Jun-20 12:00N 53°14' W 018°14'1 0.7 1016.0 13.4
2017-Jun-20 10:00N 53°13' W 018°15'1 0.7 1017.6 13.3
2017-Jun-20 09:00N 53°12' W 018°16'0 0.4 1018.6 13.3
2017-Jun-20 08:00N 53°12' W 018°16'1 0.7 1019.0 13.3
2017-Jun-20 07:00N 53°11' W 018°17'1 0.7 1019.4 13.3
2017-Jun-20 06:00N 53°11' W 018°17'1 0.9 1020.1 13.3
2017-Jun-20 05:00N 53°10' W 018°19'1 0.7 1020.7 13.3
2017-Jun-20 04:00N 53°10' W 018°19'1 1.4 1021.1 13.3
2017-Jun-20 03:00N 53°08' W 018°20'1 0.7 1021.6 13.3
2017-Jun-20 02:00N 53°08' W 018°21'1 1.2 1021.9 13.4
2017-Jun-20 01:00N 53°07' W 018°21'1 0.6 1022.7 13.4
2017-Jun-20 00:00N 53°06' W 018°21'1 0.6 1023.4 13.4
2017-Jun-19 23:00N 53°05' W 018°21'1 0.7 1024.1 13.5
2017-Jun-19 22:00N 53°05' W 018°22'1 0.6 1024.2 13.5
2017-Jun-19 21:00N 53°04' W 018°22'0 0.4 1024.3 13.5
2017-Jun-19 20:00N 53°04' W 018°22'1 0.7 1024.6 13.5
2017-Jun-19 19:00N 53°04' W 018°23'0 0.4 1024.8 13.5
2017-Jun-19 18:00N 53°04' W 018°23'1 0.9 1024.9 13.5
2017-Jun-19 17:00N 53°03' W 018°25'0 0.4 1024.7 13.5
2017-Jun-19 16:00N 53°03' W 018°25'1 0.9 1024.9 13.5
2017-Jun-19 15:00N 53°02' W 018°26'1 0.7 1025.1 13.5
2017-Jun-19 14:00N 53°02' W 018°27'1 0.9 1025.1 13.4
2017-Jun-19 13:00N 53°01' W 018°28'1 0.7 1025.4 13.4
2017-Jun-19 12:00N 53°01' W 018°29'1 0.7 1025.3 13.4
2017-Jun-19 11:00N 53°00' W 018°29'1 1.3 1025.2 13.5
2017-Jun-19 10:00N 52°59' W 018°30'0 0.4 1024.9 13.3
2017-Jun-19 09:00N 52°59' W 018°31'1 0.6 1024.7 13.3
2017-Jun-19 08:00N 52°58' W 018°31'0 0.0 1024.5 13.3
2017-Jun-19 07:00N 52°58' W 018°31'0 0.4 1024.4 13.3
2017-Jun-19 06:00N 52°58' W 018°31'0 0.4 1023.9 13.3
2017-Jun-19 05:00N 52°58' W 018°32'1 0.9 1023.4 13.4
2017-Jun-19 04:00N 52°58' W 018°33'0 0.4 1023.3 13.4
2017-Jun-19 03:00N 52°58' W 018°34'1 0.7 1023.1 13.4
2017-Jun-19 02:00N 52°58' W 018°35'1 0.7 1023.3 13.4
2017-Jun-19 01:00N 52°57' W 018°35'1 0.7 1023.4 13.4
2017-Jun-19 00:00N 52°56' W 018°36'1 0.9 1023.1 13.5
2017-Jun-18 23:00N 52°56' W 018°37'1 0.7 1023.2 13.5
2017-Jun-18 22:00N 52°55' W 018°38'0 0.4 1022.8 13.5
2017-Jun-18 21:00N 52°55' W 018°38'1 0.9 1022.8 13.5
2017-Jun-18 20:00N 52°55' W 018°40'1 0.7 1022.1 13.5
2017-Jun-18 19:00N 52°54' W 018°40'0 0.4 1021.8 13.6
2017-Jun-18 18:00N 52°54' W 018°41'1 0.7 1021.8 13.6
2017-Jun-18 17:00N 52°53' W 018°41'1 0.7 1021.9 13.6
2017-Jun-18 16:00N 52°53' W 018°42'0 0.4 1021.9 13.6
2017-Jun-18 15:00N 52°53' W 018°43'1 0.6 1021.8 13.6
2017-Jun-18 14:00N 52°52' W 018°43'0 0.4 1021.8 13.6
2017-Jun-18 13:00N 52°52' W 018°43'1 0.7 1022.1 13.5
2017-Jun-18 12:00N 52°52' W 018°44'0 0.0 1022.0 13.5
2017-Jun-18 11:00N 52°52' W 018°44'1 0.7 1022.0 13.4
2017-Jun-18 10:00N 52°51' W 018°44'1 0.7 1022.0 13.3
2017-Jun-18 09:00N 52°51' W 018°46'0 0.4 1021.7 13.4
2017-Jun-18 08:00N 52°51' W 018°46'1 0.7 1021.8 13.3
2017-Jun-18 07:00N 52°50' W 018°47'1 0.7 1021.7 13.4
2017-Jun-18 06:00N 52°50' W 018°48'1 0.7 1021.4 13.4
2017-Jun-18 05:00N 52°50' W 018°49'1 0.7 1021.1 13.4
2017-Jun-18 04:00N 52°50' W 018°50'1 0.7 1021.2 13.4
2017-Jun-18 03:00N 52°49' W 018°50'0 0.4 1020.9 13.4
2017-Jun-18 02:00N 52°49' W 018°51'1 0.7 1021.6 13.4
2017-Jun-18 01:00N 52°49' W 018°52'1 0.7 1021.5 13.4
2017-Jun-18 00:00N 52°48' W 018°52'0 0.4 1021.8 13.4
2017-Jun-17 23:00N 52°48' W 018°53'1 0.6 1021.8 13.4
2017-Jun-17 22:00N 52°47' W 018°53'0 0.4 1021.4 13.3
2017-Jun-17 21:00N 52°47' W 018°53'1 0.7 1021.3 13.3
2017-Jun-17 20:00N 52°47' W 018°54'0 0.4 1020.8 13.4
2017-Jun-17 19:00N 52°47' W 018°55'1 0.7 1020.8 13.4
2017-Jun-17 18:00N 52°47' W 018°56'2 0.5 1021.3 13.5
2017-Jun-17 15:00N 52°46' W 018°58'1 0.7 1020.6 13.5
2017-Jun-17 14:00N 52°46' W 018°59'1 0.9 1020.6 13.4
2017-Jun-17 13:00N 52°46' W 019°01'0 0.4 1020.7 13.3
2017-Jun-17 12:00N 52°46' W 019°01'1 0.9 1020.5 13.2
2017-Jun-17 11:00N 52°45' W 019°02'1 0.6 1020.0 13.2
2017-Jun-17 10:00N 52°44' W 019°02'1 0.7 1019.7 13.2
2017-Jun-17 09:00N 52°44' W 019°03'1 0.6 1019.3 13.1
2017-Jun-17 08:00N 52°43' W 019°03'0 0.0 1019.1 13.1
2017-Jun-17 07:00N 52°43' W 019°03'0 0.0 1019.0 13.1
2017-Jun-17 06:00N 52°43' W 019°03'0 0.4 1018.7 13.1
2017-Jun-17 05:00N 52°43' W 019°04'0 0.0 1018.1 13.1
2017-Jun-17 04:00N 52°43' W 019°04'0 0.4 1017.8 13.1
2017-Jun-17 03:00N 52°43' W 019°04'0 0.4 1017.6 13.1
2017-Jun-17 02:00N 52°43' W 019°05'1 0.7 1017.6 13.1
2017-Jun-17 01:00N 52°43' W 019°06'1 0.7 1017.4 13.0
2017-Jun-17 00:00N 52°43' W 019°07'1 0.7 1017.0 13.1
2017-Jun-16 23:00N 52°43' W 019°08'1 0.7 110 / 10 gusting 121016.7 27.823.013.1
2017-Jun-16 22:00N 52°42' W 019°08'1 0.9 1016.5 13.1
2017-Jun-16 21:00N 52°41' W 019°10'1 0.7 1016.0 13.1
2017-Jun-16 20:00N 52°41' W 019°10'1 1.3 1016.0 13.1
2017-Jun-16 19:00N 52°40' W 019°11'0 0.4 1016.0 13.1
2017-Jun-16 18:00N 52°40' W 019°11'1 0.6 1016.0 13.1
2017-Jun-16 16:00N 52°38' W 019°12'1 0.7 1016.0 13.1
2017-Jun-16 15:00N 52°38' W 019°13'1 0.6 1015.8 13.1
2017-Jun-16 14:00N 52°37' W 019°13'0 0.0 1015.6 13.1
2017-Jun-16 13:00N 52°37' W 019°13'1 0.7 1015.7 13.0
2017-Jun-16 12:00N 52°37' W 019°13'0 0.0 1015.2 13.0
2017-Jun-16 11:00N 52°37' W 019°13'1 0.7 1015.1 13.0
2017-Jun-16 10:00N 52°36' W 019°14'0 0.4 1014.7 13.0
2017-Jun-16 09:00N 52°36' W 019°14'1 0.7 1014.6 13.0
2017-Jun-16 08:00N 52°35' W 019°15'0 0.4 1014.6 13.0
2017-Jun-16 07:00N 52°35' W 019°16'1 0.7 1014.0 13.0
2017-Jun-16 06:00N 52°35' W 019°16'1 0.7 1013.8 13.0
2017-Jun-16 05:00N 52°34' W 019°17'0 0.4 1013.4 13.0
2017-Jun-16 04:00N 52°34' W 019°17'1 0.7 1013.5 13.0
2017-Jun-16 03:00N 52°34' W 019°18'1 0.6 1013.4 13.0
2017-Jun-16 02:00N 52°33' W 019°18'1 0.7 1013.5 13.0
2017-Jun-16 01:00N 52°32' W 019°19'1 0.7 1013.6 13.0
2017-Jun-16 00:00N 52°32' W 019°18'1 0.6 1013.8 13.0
2017-Jun-15 23:00N 52°31' W 019°18'0 0.0 1013.7 13.0
2017-Jun-15 22:00N 52°31' W 019°18'1 0.6 1013.1 13.0
2017-Jun-15 21:00N 52°31' W 019°18'0 0.0 1012.8 13.0
2017-Jun-15 20:00N 52°31' W 019°18'1 0.6 1012.2 13.0
2017-Jun-15 19:00N 52°30' W 019°18'0 0.0 1011.8 13.0
2017-Jun-15 18:00N 52°30' W 019°18'0 0.4 1011.4 12.9
2017-Jun-15 17:00N 52°30' W 019°19'0 0.4 1011.3 12.9
2017-Jun-15 16:00N 52°30' W 019°19'1 0.7 1011.3 12.9
2017-Jun-15 15:00N 52°29' W 019°20'0 0.4 1011.1 12.9
2017-Jun-15 14:00N 52°29' W 019°20'1 0.7 1011.2 12.9
2017-Jun-15 13:00N 52°29' W 019°21'0 0.4 1010.9 12.9
2017-Jun-15 12:00N 52°29' W 019°22'1 0.7 1010.9 12.9
2017-Jun-15 11:00N 52°28' W 019°22'1 0.6 1010.5 12.9
2017-Jun-15 09:00N 52°27' W 019°22'1 0.6 1009.3 12.9
2017-Jun-15 08:00N 52°26' W 019°22'1 0.4 1008.5 12.9
2017-Jun-15 06:00N 52°26' W 019°22'0 0.0 1006.9 12.9
2017-Jun-15 05:00N 52°26' W 019°22'2 0.4 1005.9 12.9
2017-Jun-15 00:00N 52°28' W 019°23'2 0.6 1002.1 13.0
2017-Jun-14 21:00N 52°27' W 019°26'1 0.7 1000.8 13.1
2017-Jun-14 20:00N 52°27' W 019°27'1 0.7 999.9 13.1
2017-Jun-14 19:00N 52°26' W 019°28'1 1.3 999.6 13.1
2017-Jun-14 18:00N 52°25' W 019°28'1 0.7 999.3 13.1
2017-Jun-14 17:00N 52°25' W 019°29'1 0.6 998.9 13.1
2017-Jun-14 16:00N 52°24' W 019°29'1 0.6 998.7 13.1
2017-Jun-14 15:00N 52°23' W 019°29'0 0.0 998.1 13.1
2017-Jun-14 14:00N 52°23' W 019°29'1 0.6 998.0 13.1
2017-Jun-14 13:00N 52°23' W 019°29'1 0.6 997.8 13.0
2017-Jun-14 12:00N 52°22' W 019°29'0 0.4 997.5 13.0
2017-Jun-14 11:00N 52°22' W 019°28'0 0.0 997.4 13.0
2017-Jun-14 10:00N 52°22' W 019°28'0 0.0 997.3 13.0
2017-Jun-14 09:00N 52°22' W 019°28'1 0.6 997.4 13.0
2017-Jun-14 08:00N 52°22' W 019°28'0 0.4 997.1 13.0
2017-Jun-14 07:00N 52°22' W 019°29'1 0.7 997.2 13.0
2017-Jun-14 06:00N 52°21' W 019°29'1 0.7 997.0 13.0
2017-Jun-14 05:00N 52°20' W 019°30'1 0.7 997.0 13.0
2017-Jun-14 04:00N 52°20' W 019°31'1 0.7 996.8 13.0
2017-Jun-14 03:00N 52°19' W 019°31'1 0.7 996.6 13.0
2017-Jun-14 02:00N 52°19' W 019°32'1 1.2 996.2 13.1
2017-Jun-14 01:00N 52°17' W 019°32'1 0.6 995.6 13.1
2017-Jun-14 00:00N 52°17' W 019°32'1 0.7 995.0 13.1
2017-Jun-13 23:00N 52°16' W 019°31'   995.4 13.1
Track history (hours):
 
Tides and Currents Weather Stations Pressure Air Temp Water Temp Dewpoint Dewpoint Depression Visibility Wind Speed Wind Dir Waves Ship Positions

Drifting buoy 47557

Last reported at 2017-Jun-23 23:00 UTC. Time now 2017-Jun-24 00:19 UTC.
Position N 53°17' W 016°39'.

Barometer 1015.1 mb
Water temperature 13.1 ° C

Date/timePositionNaut miles runAvg speedWind from/ knotsBaromVisibWave heightAir tempDewpointWater temp
2017-Jun-23 23:00N 53°17' W 016°39'1 1.4 1015.1 13.1
2017-Jun-23 22:00N 53°18' W 016°40'1 0.9 1014.6 13.1
2017-Jun-23 21:00N 53°19' W 016°41'1 1.4 1013.7 13.2
2017-Jun-23 20:00N 53°20' W 016°43'1 0.9 1012.9 13.2
2017-Jun-23 19:00N 53°20' W 016°44'1 0.9 1012.2 13.2
2017-Jun-23 18:00N 53°21' W 016°45'1 0.7 1012.1 13.2
2017-Jun-23 17:00N 53°22' W 016°46'1 0.7 1012.5 13.2
2017-Jun-23 16:00N 53°22' W 016°46'1 0.9 1012.5 13.2
2017-Jun-23 15:00N 53°23' W 016°47'1 0.7 1012.7 13.2
2017-Jun-23 14:00N 53°23' W 016°48'1 0.9 1012.8 13.2
2017-Jun-23 13:00N 53°24' W 016°49'2 1.6 1012.7 13.2
2017-Jun-23 12:00N 53°25' W 016°51'1 1.4 1012.6 13.2
2017-Jun-23 11:00N 53°26' W 016°52'1 0.9 1012.4 13.2
2017-Jun-23 10:00N 53°27' W 016°53'1 1.2 1011.9 13.2
2017-Jun-23 09:00N 53°28' W 016°55'1 0.9 1011.7 13.2
2017-Jun-23 08:00N 53°28' W 016°56'1 0.9 1011.3 13.2
2017-Jun-23 07:00N 53°29' W 016°58'1 0.7 1010.7 13.2
2017-Jun-23 06:00N 53°29' W 016°58'1 0.7 1009.8 13.2
2017-Jun-23 05:00N 53°29' W 016°59'0 0.4 1009.3 13.2
2017-Jun-23 04:00N 53°29' W 017°00'1 0.7 1008.4 13.2
2017-Jun-23 03:00N 53°30' W 017°01'1 0.7 1008.1 13.2
2017-Jun-23 02:00N 53°31' W 017°01'1 0.7 1007.9 13.2
2017-Jun-23 01:00N 53°31' W 017°02'1 0.9 1007.4 13.2
2017-Jun-23 00:00N 53°32' W 017°03'1 0.7 1006.8 13.2
2017-Jun-22 23:00N 53°32' W 017°04'1 0.9 1006.0 13.3
2017-Jun-22 22:00N 53°33' W 017°05'1 1.3 1005.6 13.3
2017-Jun-22 21:00N 53°34' W 017°05'1 0.9 1004.6 13.3
2017-Jun-22 20:00N 53°35' W 017°07'1 1.2 1003.7 13.3
2017-Jun-22 19:00N 53°35' W 017°08'1 1.2 1003.3 13.3
2017-Jun-22 18:00N 53°36' W 017°10'3 1.1 1003.4 13.3
2017-Jun-22 15:00N 53°36' W 017°16'1 0.7 1003.8 13.3
2017-Jun-22 14:00N 53°36' W 017°17'1 1.2 1004.4 13.4
2017-Jun-22 13:00N 53°35' W 017°19'1 1.2 1005.0 13.4
2017-Jun-22 12:00N 53°35' W 017°20'1 0.7 1005.5 13.4
2017-Jun-22 11:00N 53°35' W 017°22'1 0.7 1005.9 13.4
2017-Jun-22 10:00N 53°35' W 017°23'1 0.7 1007.1 13.4
2017-Jun-22 09:00N 53°34' W 017°23'1 0.7 1007.9 13.4
2017-Jun-22 08:00N 53°34' W 017°25'1 0.9 1008.2 13.4
2017-Jun-22 07:00N 53°35' W 017°26'1 0.7 1008.6 13.4
2017-Jun-22 06:00N 53°35' W 017°27'1 1.2 1008.9 13.4
2017-Jun-22 05:00N 53°34' W 017°29'1 0.7 1009.6 13.4
2017-Jun-22 04:00N 53°34' W 017°30'1 1.2 1010.2 13.4
2017-Jun-22 03:00N 53°34' W 017°32'1 1.1 1010.5 13.4
2017-Jun-22 02:00N 53°34' W 017°34'1 0.9 1010.8 13.4
2017-Jun-22 01:00N 53°33' W 017°35'1 1.2 1011.6 13.4
2017-Jun-22 00:00N 53°32' W 017°37'1 0.9 1012.1 13.4
2017-Jun-21 23:00N 53°32' W 017°38'1 0.9 1012.7 13.5
2017-Jun-21 22:00N 53°31' W 017°39'1 0.7 1012.8 13.5
2017-Jun-21 21:00N 53°31' W 017°40'1 0.7 1013.1 13.5
2017-Jun-21 20:00N 53°31' W 017°41'0 0.4 1013.3 13.5
2017-Jun-21 19:00N 53°31' W 017°41'1 0.9 1012.9 13.5
2017-Jun-21 18:00N 53°30' W 017°43'1 0.7 1013.1 13.5
2017-Jun-21 17:00N 53°30' W 017°44'1 1.2 1013.1 13.5
2017-Jun-21 16:00N 53°29' W 017°46'1 0.9 1013.2 13.5
2017-Jun-21 15:00N 53°29' W 017°47'1 1.1 1013.0 13.4
2017-Jun-21 14:00N 53°29' W 017°49'2 1.1 1013.2 13.4
2017-Jun-21 12:00N 53°28' W 017°52'1 1.4 1013.1 13.4
2017-Jun-21 11:00N 53°26' W 017°53'1 0.7 1013.0 13.3
2017-Jun-21 10:00N 53°26' W 017°54'1 0.9 1012.8 13.3
2017-Jun-21 09:00N 53°26' W 017°55'1 0.9 1012.8 13.3
2017-Jun-21 08:00N 53°25' W 017°56'1 0.7 1012.5 13.3
2017-Jun-21 07:00N 53°25' W 017°58'1 0.7 1011.9 13.3
2017-Jun-21 06:00N 53°25' W 017°58'1 0.9 1011.3 13.3
2017-Jun-21 05:00N 53°24' W 017°59'1 0.9 1011.1 13.3
2017-Jun-21 04:00N 53°23' W 018°01'1 0.7 1011.0 13.3
2017-Jun-21 03:00N 53°23' W 018°01'2 0.7 1010.6 13.3
2017-Jun-21 00:00N 53°22' W 018°04'1 0.9 1010.4 13.3
2017-Jun-20 23:00N 53°21' W 018°05'1 0.9 1010.3 13.3
2017-Jun-20 22:00N 53°20' W 018°07'1 0.7 1010.3 13.4
2017-Jun-20 21:00N 53°20' W 018°07'2 0.8 1010.2 13.4
2017-Jun-20 19:00N 53°19' W 018°10'1 0.7 1010.5 13.4
2017-Jun-20 18:00N 53°19' W 018°10'3 0.9 1010.9 13.4
2017-Jun-20 15:00N 53°16' W 018°13'3 0.8 1012.7 13.4
2017-Jun-20 12:00N 53°14' W 018°14'1 0.7 1016.0 13.4
2017-Jun-20 10:00N 53°13' W 018°15'1 0.7 1017.6 13.3
2017-Jun-20 09:00N 53°12' W 018°16'0 0.4 1018.6 13.3
2017-Jun-20 08:00N 53°12' W 018°16'1 0.7 1019.0 13.3
2017-Jun-20 07:00N 53°11' W 018°17'1 0.7 1019.4 13.3
2017-Jun-20 06:00N 53°11' W 018°17'1 0.9 1020.1 13.3
2017-Jun-20 05:00N 53°10' W 018°19'1 0.7 1020.7 13.3
2017-Jun-20 04:00N 53°10' W 018°19'1 1.4 1021.1 13.3
2017-Jun-20 03:00N 53°08' W 018°20'1 0.7 1021.6 13.3
2017-Jun-20 02:00N 53°08' W 018°21'1 1.2 1021.9 13.4
2017-Jun-20 01:00N 53°07' W 018°21'1 0.6 1022.7 13.4
2017-Jun-20 00:00N 53°06' W 018°21'1 0.6 1023.4 13.4
2017-Jun-19 23:00N 53°05' W 018°21'1 0.7 1024.1 13.5
2017-Jun-19 22:00N 53°05' W 018°22'1 0.6 1024.2 13.5
2017-Jun-19 21:00N 53°04' W 018°22'0 0.4 1024.3 13.5
2017-Jun-19 20:00N 53°04' W 018°22'1 0.7 1024.6 13.5
2017-Jun-19 19:00N 53°04' W 018°23'0 0.4 1024.8 13.5
2017-Jun-19 18:00N 53°04' W 018°23'1 0.9 1024.9 13.5
2017-Jun-19 17:00N 53°03' W 018°25'0 0.4 1024.7 13.5
2017-Jun-19 16:00N 53°03' W 018°25'1 0.9 1024.9 13.5
2017-Jun-19 15:00N 53°02' W 018°26'1 0.7 1025.1 13.5
2017-Jun-19 14:00N 53°02' W 018°27'1 0.9 1025.1 13.4
2017-Jun-19 13:00N 53°01' W 018°28'1 0.7 1025.4 13.4
2017-Jun-19 12:00N 53°01' W 018°29'1 0.7 1025.3 13.4
2017-Jun-19 11:00N 53°00' W 018°29'1 1.3 1025.2 13.5
2017-Jun-19 10:00N 52°59' W 018°30'0 0.4 1024.9 13.3
2017-Jun-19 09:00N 52°59' W 018°31'1 0.6 1024.7 13.3
2017-Jun-19 08:00N 52°58' W 018°31'0 0.0 1024.5 13.3
2017-Jun-19 07:00N 52°58' W 018°31'0 0.4 1024.4 13.3
2017-Jun-19 06:00N 52°58' W 018°31'0 0.4 1023.9 13.3
2017-Jun-19 05:00N 52°58' W 018°32'1 0.9 1023.4 13.4
2017-Jun-19 04:00N 52°58' W 018°33'0 0.4 1023.3 13.4
2017-Jun-19 03:00N 52°58' W 018°34'1 0.7 1023.1 13.4
2017-Jun-19 02:00N 52°58' W 018°35'1 0.7 1023.3 13.4
2017-Jun-19 01:00N 52°57' W 018°35'1 0.7 1023.4 13.4
2017-Jun-19 00:00N 52°56' W 018°36'1 0.9 1023.1 13.5
2017-Jun-18 23:00N 52°56' W 018°37'1 0.7 1023.2 13.5
2017-Jun-18 22:00N 52°55' W 018°38'0 0.4 1022.8 13.5
2017-Jun-18 21:00N 52°55' W 018°38'1 0.9 1022.8 13.5
2017-Jun-18 20:00N 52°55' W 018°40'1 0.7 1022.1 13.5
2017-Jun-18 19:00N 52°54' W 018°40'0 0.4 1021.8 13.6
2017-Jun-18 18:00N 52°54' W 018°41'1 0.7 1021.8 13.6
2017-Jun-18 17:00N 52°53' W 018°41'1 0.7 1021.9 13.6
2017-Jun-18 16:00N 52°53' W 018°42'0 0.4 1021.9 13.6
2017-Jun-18 15:00N 52°53' W 018°43'1 0.6 1021.8 13.6
2017-Jun-18 14:00N 52°52' W 018°43'0 0.4 1021.8 13.6
2017-Jun-18 13:00N 52°52' W 018°43'1 0.7 1022.1 13.5
2017-Jun-18 12:00N 52°52' W 018°44'0 0.0 1022.0 13.5
2017-Jun-18 11:00N 52°52' W 018°44'1 0.7 1022.0 13.4
2017-Jun-18 10:00N 52°51' W 018°44'1 0.7 1022.0 13.3
2017-Jun-18 09:00N 52°51' W 018°46'0 0.4 1021.7 13.4
2017-Jun-18 08:00N 52°51' W 018°46'1 0.7 1021.8 13.3
2017-Jun-18 07:00N 52°50' W 018°47'1 0.7 1021.7 13.4
2017-Jun-18 06:00N 52°50' W 018°48'1 0.7 1021.4 13.4
2017-Jun-18 05:00N 52°50' W 018°49'1 0.7 1021.1 13.4
2017-Jun-18 04:00N 52°50' W 018°50'1 0.7 1021.2 13.4
2017-Jun-18 03:00N 52°49' W 018°50'0 0.4 1020.9 13.4
2017-Jun-18 02:00N 52°49' W 018°51'1 0.7 1021.6 13.4
2017-Jun-18 01:00N 52°49' W 018°52'1 0.7 1021.5 13.4
2017-Jun-18 00:00N 52°48' W 018°52'0 0.4 1021.8 13.4
2017-Jun-17 23:00N 52°48' W 018°53'1 0.6 1021.8 13.4
2017-Jun-17 22:00N 52°47' W 018°53'0 0.4 1021.4 13.3
2017-Jun-17 21:00N 52°47' W 018°53'1 0.7 1021.3 13.3
2017-Jun-17 20:00N 52°47' W 018°54'0 0.4 1020.8 13.4
2017-Jun-17 19:00N 52°47' W 018°55'1 0.7 1020.8 13.4
2017-Jun-17 18:00N 52°47' W 018°56'2 0.5 1021.3 13.5
2017-Jun-17 15:00N 52°46' W 018°58'1 0.7 1020.6 13.5
2017-Jun-17 14:00N 52°46' W 018°59'1 0.9 1020.6 13.4
2017-Jun-17 13:00N 52°46' W 019°01'0 0.4 1020.7 13.3
2017-Jun-17 12:00N 52°46' W 019°01'1 0.9 1020.5 13.2
2017-Jun-17 11:00N 52°45' W 019°02'1 0.6 1020.0 13.2
2017-Jun-17 10:00N 52°44' W 019°02'1 0.7 1019.7 13.2
2017-Jun-17 09:00N 52°44' W 019°03'1 0.6 1019.3 13.1
2017-Jun-17 08:00N 52°43' W 019°03'0 0.0 1019.1 13.1
2017-Jun-17 07:00N 52°43' W 019°03'0 0.0 1019.0 13.1
2017-Jun-17 06:00N 52°43' W 019°03'0 0.4 1018.7 13.1
2017-Jun-17 05:00N 52°43' W 019°04'0 0.0 1018.1 13.1
2017-Jun-17 04:00N 52°43' W 019°04'0 0.4 1017.8 13.1
2017-Jun-17 03:00N 52°43' W 019°04'0 0.4 1017.6 13.1
2017-Jun-17 02:00N 52°43' W 019°05'1 0.7 1017.6 13.1
2017-Jun-17 01:00N 52°43' W 019°06'1 0.7 1017.4 13.0
2017-Jun-17 00:00N 52°43' W 019°07'1 0.7 1017.0 13.1
2017-Jun-16 23:00N 52°43' W 019°08'1 0.7 110 / 10 gusting 121016.7 27.823.013.1
2017-Jun-16 22:00N 52°42' W 019°08'1 0.9 1016.5 13.1
2017-Jun-16 21:00N 52°41' W 019°10'1 0.7 1016.0 13.1
2017-Jun-16 20:00N 52°41' W 019°10'1 1.3 1016.0 13.1
2017-Jun-16 19:00N 52°40' W 019°11'0 0.4 1016.0 13.1
2017-Jun-16 18:00N 52°40' W 019°11'1 0.6 1016.0 13.1
2017-Jun-16 16:00N 52°38' W 019°12'1 0.7 1016.0 13.1
2017-Jun-16 15:00N 52°38' W 019°13'1 0.6 1015.8 13.1
2017-Jun-16 14:00N 52°37' W 019°13'0 0.0 1015.6 13.1
2017-Jun-16 13:00N 52°37' W 019°13'1 0.7 1015.7 13.0
2017-Jun-16 12:00N 52°37' W 019°13'0 0.0 1015.2 13.0
2017-Jun-16 11:00N 52°37' W 019°13'1 0.7 1015.1 13.0
2017-Jun-16 10:00N 52°36' W 019°14'0 0.4 1014.7 13.0
2017-Jun-16 09:00N 52°36' W 019°14'1 0.7 1014.6 13.0
2017-Jun-16 08:00N 52°35' W 019°15'0 0.4 1014.6 13.0
2017-Jun-16 07:00N 52°35' W 019°16'1 0.7 1014.0 13.0
2017-Jun-16 06:00N 52°35' W 019°16'1 0.7 1013.8 13.0
2017-Jun-16 05:00N 52°34' W 019°17'0 0.4 1013.4 13.0
2017-Jun-16 04:00N 52°34' W 019°17'1 0.7 1013.5 13.0
2017-Jun-16 03:00N 52°34' W 019°18'1 0.6 1013.4 13.0
2017-Jun-16 02:00N 52°33' W 019°18'1 0.7 1013.5 13.0
2017-Jun-16 01:00N 52°32' W 019°19'1 0.7 1013.6 13.0
2017-Jun-16 00:00N 52°32' W 019°18'1 0.6 1013.8 13.0
2017-Jun-15 23:00N 52°31' W 019°18'0 0.0 1013.7 13.0
2017-Jun-15 22:00N 52°31' W 019°18'1 0.6 1013.1 13.0
2017-Jun-15 21:00N 52°31' W 019°18'0 0.0 1012.8 13.0
2017-Jun-15 20:00N 52°31' W 019°18'1 0.6 1012.2 13.0
2017-Jun-15 19:00N 52°30' W 019°18'0 0.0 1011.8 13.0
2017-Jun-15 18:00N 52°30' W 019°18'0 0.4 1011.4 12.9
2017-Jun-15 17:00N 52°30' W 019°19'0 0.4 1011.3 12.9
2017-Jun-15 16:00N 52°30' W 019°19'1 0.7 1011.3 12.9
2017-Jun-15 15:00N 52°29' W 019°20'0 0.4 1011.1 12.9
2017-Jun-15 14:00N 52°29' W 019°20'1 0.7 1011.2 12.9
2017-Jun-15 13:00N 52°29' W 019°21'0 0.4 1010.9 12.9
2017-Jun-15 12:00N 52°29' W 019°22'1 0.7 1010.9 12.9
2017-Jun-15 11:00N 52°28' W 019°22'1 0.6 1010.5 12.9
2017-Jun-15 09:00N 52°27' W 019°22'1 0.6 1009.3 12.9
2017-Jun-15 08:00N 52°26' W 019°22'1 0.4 1008.5 12.9
2017-Jun-15 06:00N 52°26' W 019°22'0 0.0 1006.9 12.9
2017-Jun-15 05:00N 52°26' W 019°22'2 0.4 1005.9 12.9
2017-Jun-15 00:00N 52°28' W 019°23'2 0.6 1002.1 13.0
2017-Jun-14 21:00N 52°27' W 019°26'1 0.7 1000.8 13.1
2017-Jun-14 20:00N 52°27' W 019°27'1 0.7 999.9 13.1
2017-Jun-14 19:00N 52°26' W 019°28'1 1.3 999.6 13.1
2017-Jun-14 18:00N 52°25' W 019°28'1 0.7 999.3 13.1
2017-Jun-14 17:00N 52°25' W 019°29'1 0.6 998.9 13.1
2017-Jun-14 16:00N 52°24' W 019°29'1 0.6 998.7 13.1
2017-Jun-14 15:00N 52°23' W 019°29'0 0.0 998.1 13.1
2017-Jun-14 14:00N 52°23' W 019°29'1 0.6 998.0 13.1
2017-Jun-14 13:00N 52°23' W 019°29'1 0.6 997.8 13.0
2017-Jun-14 12:00N 52°22' W 019°29'0 0.4 997.5 13.0
2017-Jun-14 11:00N 52°22' W 019°28'0 0.0 997.4 13.0
2017-Jun-14 10:00N 52°22' W 019°28'0 0.0 997.3 13.0
2017-Jun-14 09:00N 52°22' W 019°28'1 0.6 997.4 13.0
2017-Jun-14 08:00N 52°22' W 019°28'0 0.4 997.1 13.0
2017-Jun-14 07:00N 52°22' W 019°29'1 0.7 997.2 13.0
2017-Jun-14 06:00N 52°21' W 019°29'1 0.7 997.0 13.0
2017-Jun-14 05:00N 52°20' W 019°30'1 0.7 997.0 13.0
2017-Jun-14 04:00N 52°20' W 019°31'1 0.7 996.8 13.0
2017-Jun-14 03:00N 52°19' W 019°31'1 0.7 996.6 13.0
2017-Jun-14 02:00N 52°19' W 019°32'1 1.2 996.2 13.1
2017-Jun-14 01:00N 52°17' W 019°32'1 0.6 995.6 13.1
2017-Jun-14 00:00N 52°17' W 019°32'1 0.7 995.0 13.1
2017-Jun-13 23:00N 52°16' W 019°31'   995.4 13.1

Dump ship's entire track history